sensor_id;sensor_type;location;lat;lon;timestamp;temperature;humidity
30678;DHT22;73746;47.466;8.992;2023-12-07T00:00:45;2.10;99.90
30678;DHT22;73746;47.466;8.992;2023-12-07T00:03:16;2.00;99.90
30678;DHT22;73746;47.466;8.992;2023-12-07T00:05:48;2.00;99.90
30678;DHT22;73746;47.466;8.992;2023-12-07T00:08:20;2.10;99.90
30678;DHT22;73746;47.466;8.992;2023-12-07T00:10:52;2.10;99.90
30678;DHT22;73746;47.466;8.992;2023-12-07T00:13:24;2.20;99.90
30678;DHT22;73746;47.466;8.992;2023-12-07T00:15:56;2.30;99.90
30678;DHT22;73746;47.466;8.992;2023-12-07T00:18:28;2.40;99.90
30678;DHT22;73746;47.466;8.992;2023-12-07T00:21:00;2.40;99.90
30678;DHT22;73746;47.466;8.992;2023-12-07T00:23:32;2.40;99.90
30678;DHT22;73746;47.466;8.992;2023-12-07T00:26:05;2.30;99.90
30678;DHT22;73746;47.466;8.992;2023-12-07T00:28:37;2.20;99.90
30678;DHT22;73746;47.466;8.992;2023-12-07T00:31:10;2.20;99.90
30678;DHT22;73746;47.466;8.992;2023-12-07T00:33:42;2.10;99.90
30678;DHT22;73746;47.466;8.992;2023-12-07T00:36:16;2.00;99.90
30678;DHT22;73746;47.466;8.992;2023-12-07T00:38:48;2.00;99.90
30678;DHT22;73746;47.466;8.992;2023-12-07T00:41:20;2.00;99.90
30678;DHT22;73746;47.466;8.992;2023-12-07T00:43:52;1.90;99.90
30678;DHT22;73746;47.466;8.992;2023-12-07T00:46:24;1.90;99.90
30678;DHT22;73746;47.466;8.992;2023-12-07T00:48:56;2.00;99.90
30678;DHT22;73746;47.466;8.992;2023-12-07T00:51:28;2.00;99.90
30678;DHT22;73746;47.466;8.992;2023-12-07T00:54:00;2.10;99.90
30678;DHT22;73746;47.466;8.992;2023-12-07T00:56:32;2.10;99.90
30678;DHT22;73746;47.466;8.992;2023-12-07T00:59:04;2.10;99.90
30678;DHT22;73746;47.466;8.992;2023-12-07T01:01:36;2.00;99.90
30678;DHT22;73746;47.466;8.992;2023-12-07T01:04:09;2.00;99.90
30678;DHT22;73746;47.466;8.992;2023-12-07T01:06:41;2.10;99.90
30678;DHT22;73746;47.466;8.992;2023-12-07T01:09:13;2.00;99.90
30678;DHT22;73746;47.466;8.992;2023-12-07T01:11:45;1.90;99.90
30678;DHT22;73746;47.466;8.992;2023-12-07T01:14:36;1.90;99.90
30678;DHT22;73746;47.466;8.992;2023-12-07T01:17:08;1.90;99.90
30678;DHT22;73746;47.466;8.992;2023-12-07T01:19:40;1.90;99.90
30678;DHT22;73746;47.466;8.992;2023-12-07T01:22:12;1.90;99.90
30678;DHT22;73746;47.466;8.992;2023-12-07T01:24:43;1.90;99.90
30678;DHT22;73746;47.466;8.992;2023-12-07T01:27:15;1.90;99.90
30678;DHT22;73746;47.466;8.992;2023-12-07T01:29:47;1.90;99.90
30678;DHT22;73746;47.466;8.992;2023-12-07T01:32:19;2.00;99.90
30678;DHT22;73746;47.466;8.992;2023-12-07T01:34:52;2.00;99.90
30678;DHT22;73746;47.466;8.992;2023-12-07T01:37:24;2.00;99.90
30678;DHT22;73746;47.466;8.992;2023-12-07T01:39:58;2.00;99.90
30678;DHT22;73746;47.466;8.992;2023-12-07T01:42:30;1.90;99.90
30678;DHT22;73746;47.466;8.992;2023-12-07T01:45:03;2.00;99.90
30678;DHT22;73746;47.466;8.992;2023-12-07T01:47:36;2.00;99.90
30678;DHT22;73746;47.466;8.992;2023-12-07T01:50:10;2.00;99.90
30678;DHT22;73746;47.466;8.992;2023-12-07T01:52:47;2.00;99.90
30678;DHT22;73746;47.466;8.992;2023-12-07T01:55:20;2.00;99.90
30678;DHT22;73746;47.466;8.992;2023-12-07T01:57:52;2.00;99.90
30678;DHT22;73746;47.466;8.992;2023-12-07T02:00:25;1.90;99.90
30678;DHT22;73746;47.466;8.992;2023-12-07T02:02:57;2.00;99.90
30678;DHT22;73746;47.466;8.992;2023-12-07T02:05:30;2.00;99.90
30678;DHT22;73746;47.466;8.992;2023-12-07T02:08:05;2.00;99.90
30678;DHT22;73746;47.466;8.992;2023-12-07T02:10:37;2.00;99.90
30678;DHT22;73746;47.466;8.992;2023-12-07T02:13:09;2.00;99.90
30678;DHT22;73746;47.466;8.992;2023-12-07T02:15:41;2.00;99.90
30678;DHT22;73746;47.466;8.992;2023-12-07T02:18:19;1.90;99.90
30678;DHT22;73746;47.466;8.992;2023-12-07T02:20:53;2.00;99.90
30678;DHT22;73746;47.466;8.992;2023-12-07T02:23:26;2.00;99.90
30678;DHT22;73746;47.466;8.992;2023-12-07T02:26:03;2.00;99.90
30678;DHT22;73746;47.466;8.992;2023-12-07T02:28:35;2.00;99.90
30678;DHT22;73746;47.466;8.992;2023-12-07T02:31:07;2.10;99.90
30678;DHT22;73746;47.466;8.992;2023-12-07T02:33:38;2.10;99.90
30678;DHT22;73746;47.466;8.992;2023-12-07T02:36:11;2.10;99.90
30678;DHT22;73746;47.466;8.992;2023-12-07T02:38:56;2.00;99.90
30678;DHT22;73746;47.466;8.992;2023-12-07T02:41:28;2.00;99.90
30678;DHT22;73746;47.466;8.992;2023-12-07T02:44:02;2.00;99.90
30678;DHT22;73746;47.466;8.992;2023-12-07T02:46:34;1.90;99.90
30678;DHT22;73746;47.466;8.992;2023-12-07T02:49:06;1.80;99.90
30678;DHT22;73746;47.466;8.992;2023-12-07T02:51:38;1.80;99.90
30678;DHT22;73746;47.466;8.992;2023-12-07T02:54:10;1.80;99.90
30678;DHT22;73746;47.466;8.992;2023-12-07T02:56:41;1.80;99.90
30678;DHT22;73746;47.466;8.992;2023-12-07T02:59:13;1.80;99.90
30678;DHT22;73746;47.466;8.992;2023-12-07T03:01:45;1.90;99.90
30678;DHT22;73746;47.466;8.992;2023-12-07T03:04:17;2.00;99.90
30678;DHT22;73746;47.466;8.992;2023-12-07T03:06:49;2.00;99.90
30678;DHT22;73746;47.466;8.992;2023-12-07T03:09:20;2.00;99.90
30678;DHT22;73746;47.466;8.992;2023-12-07T03:11:52;1.90;99.90
30678;DHT22;73746;47.466;8.992;2023-12-07T03:14:24;1.80;99.90
30678;DHT22;73746;47.466;8.992;2023-12-07T03:16:56;1.80;99.90
30678;DHT22;73746;47.466;8.992;2023-12-07T03:19:27;1.70;99.90
30678;DHT22;73746;47.466;8.992;2023-12-07T03:21:59;1.70;99.90
30678;DHT22;73746;47.466;8.992;2023-12-07T03:24:31;1.70;99.90
30678;DHT22;73746;47.466;8.992;2023-12-07T03:27:05;1.70;99.90
30678;DHT22;73746;47.466;8.992;2023-12-07T03:29:37;1.60;99.90
30678;DHT22;73746;47.466;8.992;2023-12-07T03:32:09;1.60;99.90
30678;DHT22;73746;47.466;8.992;2023-12-07T03:34:41;1.60;99.90
30678;DHT22;73746;47.466;8.992;2023-12-07T03:37:13;1.60;99.90
30678;DHT22;73746;47.466;8.992;2023-12-07T03:39:44;1.60;99.90
30678;DHT22;73746;47.466;8.992;2023-12-07T03:42:16;1.60;99.90
30678;DHT22;73746;47.466;8.992;2023-12-07T03:44:50;1.80;99.90
30678;DHT22;73746;47.466;8.992;2023-12-07T03:47:22;1.80;99.90
30678;DHT22;73746;47.466;8.992;2023-12-07T03:49:54;1.80;99.90
30678;DHT22;73746;47.466;8.992;2023-12-07T03:52:25;1.80;99.90
30678;DHT22;73746;47.466;8.992;2023-12-07T03:54:58;1.80;99.90
30678;DHT22;73746;47.466;8.992;2023-12-07T03:57:39;1.70;99.90
30678;DHT22;73746;47.466;8.992;2023-12-07T04:00:14;1.70;99.90
30678;DHT22;73746;47.466;8.992;2023-12-07T04:02:45;1.60;99.90
30678;DHT22;73746;47.466;8.992;2023-12-07T04:05:17;1.60;99.90
30678;DHT22;73746;47.466;8.992;2023-12-07T04:07:49;1.60;99.90
30678;DHT22;73746;47.466;8.992;2023-12-07T04:10:21;1.50;99.90
30678;DHT22;73746;47.466;8.992;2023-12-07T04:26:19;1.40;99.90
30678;DHT22;73746;47.466;8.992;2023-12-07T04:28:51;1.40;99.90
30678;DHT22;73746;47.466;8.992;2023-12-07T04:31:23;1.40;99.90
30678;DHT22;73746;47.466;8.992;2023-12-07T04:33:55;1.40;99.90
30678;DHT22;73746;47.466;8.992;2023-12-07T04:36:27;1.40;99.90
30678;DHT22;73746;47.466;8.992;2023-12-07T04:41:42;1.20;99.90
30678;DHT22;73746;47.466;8.992;2023-12-07T04:44:14;1.10;99.90
30678;DHT22;73746;47.466;8.992;2023-12-07T04:46:46;1.00;99.90
30678;DHT22;73746;47.466;8.992;2023-12-07T04:49:18;0.90;99.90
30678;DHT22;73746;47.466;8.992;2023-12-07T04:51:49;0.90;99.90
30678;DHT22;73746;47.466;8.992;2023-12-07T04:54:21;0.90;99.90
30678;DHT22;73746;47.466;8.992;2023-12-07T04:56:53;0.90;99.90
30678;DHT22;73746;47.466;8.992;2023-12-07T04:59:25;0.90;99.90
30678;DHT22;73746;47.466;8.992;2023-12-07T05:01:56;0.90;99.90
30678;DHT22;73746;47.466;8.992;2023-12-07T05:04:28;0.90;99.90
30678;DHT22;73746;47.466;8.992;2023-12-07T05:07:00;0.90;99.90
30678;DHT22;73746;47.466;8.992;2023-12-07T05:09:34;0.90;99.90
30678;DHT22;73746;47.466;8.992;2023-12-07T05:12:06;0.90;99.90
30678;DHT22;73746;47.466;8.992;2023-12-07T05:14:38;0.90;99.90
30678;DHT22;73746;47.466;8.992;2023-12-07T05:17:10;0.90;99.90
30678;DHT22;73746;47.466;8.992;2023-12-07T05:19:43;0.90;99.90
30678;DHT22;73746;47.466;8.992;2023-12-07T05:22:15;0.90;99.90
30678;DHT22;73746;47.466;8.992;2023-12-07T05:24:47;0.90;99.90
30678;DHT22;73746;47.466;8.992;2023-12-07T05:27:20;1.00;99.90
30678;DHT22;73746;47.466;8.992;2023-12-07T05:29:52;1.00;99.90
30678;DHT22;73746;47.466;8.992;2023-12-07T05:32:24;0.90;99.90
30678;DHT22;73746;47.466;8.992;2023-12-07T05:34:57;1.00;99.90
30678;DHT22;73746;47.466;8.992;2023-12-07T05:37:29;0.90;99.90
30678;DHT22;73746;47.466;8.992;2023-12-07T05:40:01;0.90;99.90
30678;DHT22;73746;47.466;8.992;2023-12-07T05:42:33;0.90;99.90
30678;DHT22;73746;47.466;8.992;2023-12-07T05:45:07;1.00;99.90
30678;DHT22;73746;47.466;8.992;2023-12-07T05:47:40;1.00;99.90
30678;DHT22;73746;47.466;8.992;2023-12-07T05:50:12;0.90;99.90
30678;DHT22;73746;47.466;8.992;2023-12-07T05:52:44;0.90;99.90
30678;DHT22;73746;47.466;8.992;2023-12-07T05:55:16;0.90;99.90
30678;DHT22;73746;47.466;8.992;2023-12-07T05:57:48;0.90;99.90
30678;DHT22;73746;47.466;8.992;2023-12-07T06:00:20;0.90;99.90
30678;DHT22;73746;47.466;8.992;2023-12-07T06:02:52;0.90;99.90
30678;DHT22;73746;47.466;8.992;2023-12-07T06:05:24;0.80;99.90
30678;DHT22;73746;47.466;8.992;2023-12-07T06:07:56;0.70;99.90
30678;DHT22;73746;47.466;8.992;2023-12-07T06:10:28;0.70;99.90
30678;DHT22;73746;47.466;8.992;2023-12-07T06:13:00;0.60;99.90
30678;DHT22;73746;47.466;8.992;2023-12-07T06:15:34;0.50;99.90
30678;DHT22;73746;47.466;8.992;2023-12-07T06:18:06;0.50;99.90
30678;DHT22;73746;47.466;8.992;2023-12-07T06:20:38;0.40;99.90
30678;DHT22;73746;47.466;8.992;2023-12-07T06:23:12;0.50;99.90
30678;DHT22;73746;47.466;8.992;2023-12-07T06:25:44;0.50;99.90
30678;DHT22;73746;47.466;8.992;2023-12-07T06:28:15;0.40;99.90
30678;DHT22;73746;47.466;8.992;2023-12-07T06:30:47;0.40;99.90
30678;DHT22;73746;47.466;8.992;2023-12-07T06:33:19;0.30;99.90
30678;DHT22;73746;47.466;8.992;2023-12-07T06:35:51;0.30;99.90
30678;DHT22;73746;47.466;8.992;2023-12-07T06:41:06;0.20;99.90
30678;DHT22;73746;47.466;8.992;2023-12-07T06:43:37;0.30;99.90
30678;DHT22;73746;47.466;8.992;2023-12-07T06:46:10;0.40;99.90
30678;DHT22;73746;47.466;8.992;2023-12-07T06:48:42;0.40;99.90
30678;DHT22;73746;47.466;8.992;2023-12-07T06:51:13;0.30;99.90
30678;DHT22;73746;47.466;8.992;2023-12-07T06:53:45;0.30;99.90
30678;DHT22;73746;47.466;8.992;2023-12-07T06:56:17;0.30;99.90
30678;DHT22;73746;47.466;8.992;2023-12-07T06:58:49;0.20;99.90
30678;DHT22;73746;47.466;8.992;2023-12-07T07:01:20;0.10;99.90
30678;DHT22;73746;47.466;8.992;2023-12-07T07:03:52;0.10;99.90
30678;DHT22;73746;47.466;8.992;2023-12-07T07:06:24;0.10;99.90
30678;DHT22;73746;47.466;8.992;2023-12-07T07:08:56;0.20;99.90
30678;DHT22;73746;47.466;8.992;2023-12-07T07:11:29;0.20;99.90
30678;DHT22;73746;47.466;8.992;2023-12-07T07:14:01;0.20;99.90
30678;DHT22;73746;47.466;8.992;2023-12-07T07:16:33;0.20;99.90
30678;DHT22;73746;47.466;8.992;2023-12-07T07:19:05;0.20;99.90
30678;DHT22;73746;47.466;8.992;2023-12-07T07:21:37;0.20;99.90
30678;DHT22;73746;47.466;8.992;2023-12-07T07:24:09;0.30;99.90
30678;DHT22;73746;47.466;8.992;2023-12-07T07:26:40;0.30;99.90
30678;DHT22;73746;47.466;8.992;2023-12-07T07:29:12;0.30;99.90
30678;DHT22;73746;47.466;8.992;2023-12-07T07:31:44;0.20;99.90
30678;DHT22;73746;47.466;8.992;2023-12-07T07:34:16;0.10;99.90
30678;DHT22;73746;47.466;8.992;2023-12-07T07:36:48;-0.10;99.90
30678;DHT22;73746;47.466;8.992;2023-12-07T07:39:20;-0.20;99.90
30678;DHT22;73746;47.466;8.992;2023-12-07T07:41:52;-0.10;99.90
30678;DHT22;73746;47.466;8.992;2023-12-07T07:44:24;0.00;99.90
30678;DHT22;73746;47.466;8.992;2023-12-07T07:49:39;0.10;99.90
30678;DHT22;73746;47.466;8.992;2023-12-07T07:52:12;0.10;99.90
30678;DHT22;73746;47.466;8.992;2023-12-07T07:54:43;0.00;99.90
30678;DHT22;73746;47.466;8.992;2023-12-07T07:57:15;0.10;99.90
30678;DHT22;73746;47.466;8.992;2023-12-07T07:59:48;0.10;99.90
30678;DHT22;73746;47.466;8.992;2023-12-07T08:02:21;0.20;99.90
30678;DHT22;73746;47.466;8.992;2023-12-07T08:04:52;0.30;99.90
30678;DHT22;73746;47.466;8.992;2023-12-07T08:07:24;0.30;99.90
30678;DHT22;73746;47.466;8.992;2023-12-07T08:09:56;0.40;99.90
30678;DHT22;73746;47.466;8.992;2023-12-07T08:12:28;0.50;99.90
30678;DHT22;73746;47.466;8.992;2023-12-07T08:15:00;0.70;99.90
30678;DHT22;73746;47.466;8.992;2023-12-07T08:17:32;0.70;99.90
30678;DHT22;73746;47.466;8.992;2023-12-07T08:20:06;0.80;99.90
30678;DHT22;73746;47.466;8.992;2023-12-07T08:22:41;0.80;99.90
30678;DHT22;73746;47.466;8.992;2023-12-07T08:25:13;0.80;99.90
30678;DHT22;73746;47.466;8.992;2023-12-07T08:27:47;0.90;99.90
30678;DHT22;73746;47.466;8.992;2023-12-07T08:30:19;1.00;99.90
30678;DHT22;73746;47.466;8.992;2023-12-07T08:32:51;1.10;99.90
30678;DHT22;73746;47.466;8.992;2023-12-07T08:35:23;1.10;99.90
30678;DHT22;73746;47.466;8.992;2023-12-07T08:37:55;1.10;99.90
30678;DHT22;73746;47.466;8.992;2023-12-07T08:40:27;1.20;99.90
30678;DHT22;73746;47.466;8.992;2023-12-07T08:42:59;1.40;99.90
30678;DHT22;73746;47.466;8.992;2023-12-07T08:45:30;1.40;99.90
30678;DHT22;73746;47.466;8.992;2023-12-07T08:48:03;1.50;99.90
30678;DHT22;73746;47.466;8.992;2023-12-07T08:50:35;1.60;99.90
30678;DHT22;73746;47.466;8.992;2023-12-07T08:53:07;1.70;99.90
30678;DHT22;73746;47.466;8.992;2023-12-07T08:55:39;1.60;99.90
30678;DHT22;73746;47.466;8.992;2023-12-07T08:58:11;1.50;99.90
30678;DHT22;73746;47.466;8.992;2023-12-07T09:00:43;1.40;99.90
30678;DHT22;73746;47.466;8.992;2023-12-07T09:03:15;1.30;99.90
30678;DHT22;73746;47.466;8.992;2023-12-07T09:05:47;1.30;99.90
30678;DHT22;73746;47.466;8.992;2023-12-07T09:08:19;1.30;99.90
30678;DHT22;73746;47.466;8.992;2023-12-07T09:10:51;1.40;99.90
30678;DHT22;73746;47.466;8.992;2023-12-07T09:13:22;1.60;99.90
30678;DHT22;73746;47.466;8.992;2023-12-07T09:15:54;1.70;99.90
30678;DHT22;73746;47.466;8.992;2023-12-07T09:18:26;1.90;99.90
30678;DHT22;73746;47.466;8.992;2023-12-07T09:20:58;2.00;99.90
30678;DHT22;73746;47.466;8.992;2023-12-07T09:23:32;2.10;99.90
30678;DHT22;73746;47.466;8.992;2023-12-07T09:26:04;2.30;99.90
30678;DHT22;73746;47.466;8.992;2023-12-07T09:28:36;2.50;99.90
30678;DHT22;73746;47.466;8.992;2023-12-07T09:31:10;2.80;99.90
30678;DHT22;73746;47.466;8.992;2023-12-07T09:33:42;3.10;99.90
30678;DHT22;73746;47.466;8.992;2023-12-07T09:36:17;3.40;99.90
30678;DHT22;73746;47.466;8.992;2023-12-07T09:38:49;3.80;99.90
30678;DHT22;73746;47.466;8.992;2023-12-07T09:41:21;4.00;99.90
30678;DHT22;73746;47.466;8.992;2023-12-07T09:43:53;4.10;99.90
30678;DHT22;73746;47.466;8.992;2023-12-07T09:46:25;3.90;99.90
30678;DHT22;73746;47.466;8.992;2023-12-07T09:48:57;3.60;99.90
30678;DHT22;73746;47.466;8.992;2023-12-07T09:51:29;3.50;99.90
30678;DHT22;73746;47.466;8.992;2023-12-07T09:54:05;3.60;99.90
30678;DHT22;73746;47.466;8.992;2023-12-07T09:56:36;3.70;99.90
30678;DHT22;73746;47.466;8.992;2023-12-07T09:59:08;3.80;99.90
30678;DHT22;73746;47.466;8.992;2023-12-07T10:01:40;3.80;99.90
30678;DHT22;73746;47.466;8.992;2023-12-07T10:04:21;3.80;99.90
30678;DHT22;73746;47.466;8.992;2023-12-07T10:06:56;3.70;99.90
30678;DHT22;73746;47.466;8.992;2023-12-07T10:09:27;3.70;99.90
30678;DHT22;73746;47.466;8.992;2023-12-07T10:12:07;3.60;99.90
30678;DHT22;73746;47.466;8.992;2023-12-07T10:14:40;3.50;99.90
30678;DHT22;73746;47.466;8.992;2023-12-07T10:17:11;3.50;99.90
30678;DHT22;73746;47.466;8.992;2023-12-07T10:19:43;3.50;99.90
30678;DHT22;73746;47.466;8.992;2023-12-07T10:22:15;3.50;99.90
30678;DHT22;73746;47.466;8.992;2023-12-07T10:24:48;3.50;99.90
30678;DHT22;73746;47.466;8.992;2023-12-07T10:27:20;3.50;99.90
30678;DHT22;73746;47.466;8.992;2023-12-07T10:29:52;3.50;99.90
30678;DHT22;73746;47.466;8.992;2023-12-07T10:32:24;3.50;99.90
30678;DHT22;73746;47.466;8.992;2023-12-07T10:34:57;3.50;99.90
30678;DHT22;73746;47.466;8.992;2023-12-07T10:37:30;3.50;99.90
30678;DHT22;73746;47.466;8.992;2023-12-07T10:40:03;3.50;99.90
30678;DHT22;73746;47.466;8.992;2023-12-07T10:42:37;3.50;99.90
30678;DHT22;73746;47.466;8.992;2023-12-07T10:45:10;3.50;99.90
30678;DHT22;73746;47.466;8.992;2023-12-07T10:47:44;3.40;99.90
30678;DHT22;73746;47.466;8.992;2023-12-07T10:50:19;3.30;99.90
30678;DHT22;73746;47.466;8.992;2023-12-07T10:52:54;3.20;99.90
30678;DHT22;73746;47.466;8.992;2023-12-07T10:55:29;3.20;99.90
30678;DHT22;73746;47.466;8.992;2023-12-07T10:58:05;3.20;99.90
30678;DHT22;73746;47.466;8.992;2023-12-07T11:00:37;3.10;99.90
30678;DHT22;73746;47.466;8.992;2023-12-07T11:03:11;3.10;99.90
30678;DHT22;73746;47.466;8.992;2023-12-07T11:05:44;3.00;99.90
30678;DHT22;73746;47.466;8.992;2023-12-07T11:08:21;2.90;99.90
30678;DHT22;73746;47.466;8.992;2023-12-07T11:11:00;2.80;99.90
30678;DHT22;73746;47.466;8.992;2023-12-07T11:13:35;2.90;99.90
30678;DHT22;73746;47.466;8.992;2023-12-07T11:16:07;3.00;99.90
30678;DHT22;73746;47.466;8.992;2023-12-07T11:18:40;3.00;99.90
30678;DHT22;73746;47.466;8.992;2023-12-07T11:21:13;2.90;99.90
30678;DHT22;73746;47.466;8.992;2023-12-07T11:23:44;3.00;99.90
30678;DHT22;73746;47.466;8.992;2023-12-07T11:26:19;3.00;99.90
30678;DHT22;73746;47.466;8.992;2023-12-07T11:28:51;3.10;99.90
30678;DHT22;73746;47.466;8.992;2023-12-07T11:31:23;3.10;99.90
30678;DHT22;73746;47.466;8.992;2023-12-07T11:33:55;3.10;99.90
30678;DHT22;73746;47.466;8.992;2023-12-07T11:36:27;3.30;99.90
30678;DHT22;73746;47.466;8.992;2023-12-07T11:42:10;3.40;99.90
30678;DHT22;73746;47.466;8.992;2023-12-07T11:44:43;3.40;99.90
30678;DHT22;73746;47.466;8.992;2023-12-07T11:47:18;3.50;99.90
30678;DHT22;73746;47.466;8.992;2023-12-07T11:49:50;3.60;99.90
30678;DHT22;73746;47.466;8.992;2023-12-07T11:52:22;3.80;99.90
30678;DHT22;73746;47.466;8.992;2023-12-07T11:54:54;3.90;99.90
30678;DHT22;73746;47.466;8.992;2023-12-07T11:57:25;4.00;99.90
30678;DHT22;73746;47.466;8.992;2023-12-07T11:59:57;4.00;99.90
30678;DHT22;73746;47.466;8.992;2023-12-07T12:02:30;4.10;99.90
30678;DHT22;73746;47.466;8.992;2023-12-07T12:05:05;4.00;99.90
30678;DHT22;73746;47.466;8.992;2023-12-07T12:07:38;3.90;99.90
30678;DHT22;73746;47.466;8.992;2023-12-07T12:10:10;3.90;99.90
30678;DHT22;73746;47.466;8.992;2023-12-07T12:12:43;3.80;99.90
30678;DHT22;73746;47.466;8.992;2023-12-07T12:15:15;3.70;99.90
30678;DHT22;73746;47.466;8.992;2023-12-07T12:17:47;3.70;99.90
30678;DHT22;73746;47.466;8.992;2023-12-07T12:20:19;3.60;99.90
30678;DHT22;73746;47.466;8.992;2023-12-07T12:22:52;3.60;99.90
30678;DHT22;73746;47.466;8.992;2023-12-07T12:25:25;3.70;99.90
30678;DHT22;73746;47.466;8.992;2023-12-07T12:28:01;3.80;99.90
30678;DHT22;73746;47.466;8.992;2023-12-07T12:30:34;3.80;99.90
30678;DHT22;73746;47.466;8.992;2023-12-07T12:33:06;3.90;99.90
30678;DHT22;73746;47.466;8.992;2023-12-07T12:35:38;4.00;99.90
30678;DHT22;73746;47.466;8.992;2023-12-07T12:38:13;4.00;99.90
30678;DHT22;73746;47.466;8.992;2023-12-07T12:40:47;4.00;99.90
30678;DHT22;73746;47.466;8.992;2023-12-07T12:43:19;4.10;99.90
30678;DHT22;73746;47.466;8.992;2023-12-07T12:45:54;4.10;99.90
30678;DHT22;73746;47.466;8.992;2023-12-07T12:48:27;3.90;99.90
30678;DHT22;73746;47.466;8.992;2023-12-07T12:51:07;3.70;99.90
30678;DHT22;73746;47.466;8.992;2023-12-07T12:53:43;3.50;99.90
30678;DHT22;73746;47.466;8.992;2023-12-07T12:56:19;3.40;99.90
30678;DHT22;73746;47.466;8.992;2023-12-07T12:58:53;3.30;99.90
30678;DHT22;73746;47.466;8.992;2023-12-07T13:01:28;3.30;99.90
30678;DHT22;73746;47.466;8.992;2023-12-07T13:03:59;3.30;99.90
30678;DHT22;73746;47.466;8.992;2023-12-07T13:06:31;3.20;99.90
30678;DHT22;73746;47.466;8.992;2023-12-07T13:09:03;3.10;99.90
30678;DHT22;73746;47.466;8.992;2023-12-07T13:11:35;3.10;99.90
30678;DHT22;73746;47.466;8.992;2023-12-07T13:14:07;2.90;99.90
30678;DHT22;73746;47.466;8.992;2023-12-07T13:16:39;2.90;99.90
30678;DHT22;73746;47.466;8.992;2023-12-07T13:19:11;2.90;99.90
30678;DHT22;73746;47.466;8.992;2023-12-07T13:21:43;2.80;99.90
30678;DHT22;73746;47.466;8.992;2023-12-07T13:24:15;2.70;99.90
30678;DHT22;73746;47.466;8.992;2023-12-07T13:26:47;3.20;99.90
30678;DHT22;73746;47.466;8.992;2023-12-07T13:29:19;3.50;99.90
30678;DHT22;73746;47.466;8.992;2023-12-07T13:31:52;3.50;99.90
30678;DHT22;73746;47.466;8.992;2023-12-07T13:34:24;3.20;99.90
30678;DHT22;73746;47.466;8.992;2023-12-07T13:36:57;3.10;99.90
30678;DHT22;73746;47.466;8.992;2023-12-07T13:39:47;3.00;99.90
30678;DHT22;73746;47.466;8.992;2023-12-07T13:42:21;2.90;99.90
30678;DHT22;73746;47.466;8.992;2023-12-07T13:44:56;2.70;99.90
30678;DHT22;73746;47.466;8.992;2023-12-07T13:47:29;2.70;99.90
30678;DHT22;73746;47.466;8.992;2023-12-07T13:50:02;2.70;99.90
30678;DHT22;73746;47.466;8.992;2023-12-07T14:08:39;2.60;99.90
30678;DHT22;73746;47.466;8.992;2023-12-07T14:11:12;2.50;99.90
30678;DHT22;73746;47.466;8.992;2023-12-07T14:13:44;2.50;99.90
30678;DHT22;73746;47.466;8.992;2023-12-07T14:16:16;2.50;99.90
30678;DHT22;73746;47.466;8.992;2023-12-07T14:18:50;2.50;99.90
30678;DHT22;73746;47.466;8.992;2023-12-07T14:21:23;2.40;99.90
30678;DHT22;73746;47.466;8.992;2023-12-07T14:23:57;2.40;99.90
30678;DHT22;73746;47.466;8.992;2023-12-07T14:26:28;2.60;99.90
30678;DHT22;73746;47.466;8.992;2023-12-07T14:29:00;2.60;99.90
30678;DHT22;73746;47.466;8.992;2023-12-07T14:31:34;2.50;99.90
30678;DHT22;73746;47.466;8.992;2023-12-07T14:34:07;2.40;99.90
30678;DHT22;73746;47.466;8.992;2023-12-07T14:36:40;2.50;99.90
30678;DHT22;73746;47.466;8.992;2023-12-07T14:39:14;2.60;99.90
30678;DHT22;73746;47.466;8.992;2023-12-07T14:41:48;2.60;99.90
30678;DHT22;73746;47.466;8.992;2023-12-07T14:44:20;2.70;99.90
30678;DHT22;73746;47.466;8.992;2023-12-07T14:46:54;2.50;99.90
30678;DHT22;73746;47.466;8.992;2023-12-07T14:49:26;2.50;99.90
30678;DHT22;73746;47.466;8.992;2023-12-07T14:51:58;2.30;99.90
30678;DHT22;73746;47.466;8.992;2023-12-07T14:54:31;2.20;99.90
30678;DHT22;73746;47.466;8.992;2023-12-07T14:57:03;2.20;99.90
30678;DHT22;73746;47.466;8.992;2023-12-07T14:59:37;2.10;99.90
30678;DHT22;73746;47.466;8.992;2023-12-07T15:02:08;2.00;99.90
30678;DHT22;73746;47.466;8.992;2023-12-07T15:04:41;2.10;99.90
30678;DHT22;73746;47.466;8.992;2023-12-07T15:07:13;2.00;99.90
30678;DHT22;73746;47.466;8.992;2023-12-07T15:09:46;1.90;99.90
30678;DHT22;73746;47.466;8.992;2023-12-07T15:12:19;1.90;99.90
30678;DHT22;73746;47.466;8.992;2023-12-07T15:14:52;1.80;99.90
30678;DHT22;73746;47.466;8.992;2023-12-07T15:17:25;1.70;99.90
30678;DHT22;73746;47.466;8.992;2023-12-07T15:19:59;1.50;99.90
30678;DHT22;73746;47.466;8.992;2023-12-07T15:22:31;1.40;99.90
30678;DHT22;73746;47.466;8.992;2023-12-07T15:25:04;1.30;99.90
30678;DHT22;73746;47.466;8.992;2023-12-07T15:27:36;1.30;99.90
30678;DHT22;73746;47.466;8.992;2023-12-07T15:30:09;1.20;99.90
30678;DHT22;73746;47.466;8.992;2023-12-07T15:32:41;1.20;99.90
30678;DHT22;73746;47.466;8.992;2023-12-07T15:35:14;1.30;99.90
30678;DHT22;73746;47.466;8.992;2023-12-07T15:37:47;1.30;99.90
30678;DHT22;73746;47.466;8.992;2023-12-07T15:40:18;1.20;99.90
30678;DHT22;73746;47.466;8.992;2023-12-07T15:42:50;1.10;99.90
30678;DHT22;73746;47.466;8.992;2023-12-07T15:45:22;1.10;99.90
30678;DHT22;73746;47.466;8.992;2023-12-07T15:47:54;1.10;99.90
30678;DHT22;73746;47.466;8.992;2023-12-07T15:50:27;1.10;99.90
30678;DHT22;73746;47.466;8.992;2023-12-07T15:52:58;1.00;99.90
30678;DHT22;73746;47.466;8.992;2023-12-07T15:55:30;0.90;99.90
30678;DHT22;73746;47.466;8.992;2023-12-07T15:58:02;0.80;99.90
30678;DHT22;73746;47.466;8.992;2023-12-07T16:00:36;0.70;99.90
30678;DHT22;73746;47.466;8.992;2023-12-07T16:03:08;0.80;99.90
30678;DHT22;73746;47.466;8.992;2023-12-07T16:05:40;0.70;99.90
30678;DHT22;73746;47.466;8.992;2023-12-07T16:08:11;0.70;99.90
30678;DHT22;73746;47.466;8.992;2023-12-07T16:10:44;0.70;99.90
30678;DHT22;73746;47.466;8.992;2023-12-07T16:13:16;0.70;99.90
30678;DHT22;73746;47.466;8.992;2023-12-07T16:15:48;0.60;99.90
30678;DHT22;73746;47.466;8.992;2023-12-07T16:18:20;0.50;99.90
30678;DHT22;73746;47.466;8.992;2023-12-07T16:20:52;0.50;99.90
30678;DHT22;73746;47.466;8.992;2023-12-07T16:23:24;0.50;99.90
30678;DHT22;73746;47.466;8.992;2023-12-07T16:25:55;0.50;99.90
30678;DHT22;73746;47.466;8.992;2023-12-07T16:28:27;0.50;99.90
30678;DHT22;73746;47.466;8.992;2023-12-07T16:30:59;0.50;99.90
30678;DHT22;73746;47.466;8.992;2023-12-07T16:33:32;0.70;99.90
30678;DHT22;73746;47.466;8.992;2023-12-07T16:36:07;0.80;99.90
30678;DHT22;73746;47.466;8.992;2023-12-07T16:38:41;0.80;99.90
30678;DHT22;73746;47.466;8.992;2023-12-07T16:41:13;0.80;99.90
30678;DHT22;73746;47.466;8.992;2023-12-07T16:43:45;0.80;99.90
30678;DHT22;73746;47.466;8.992;2023-12-07T16:46:16;0.90;99.90
30678;DHT22;73746;47.466;8.992;2023-12-07T16:48:48;0.80;99.90
30678;DHT22;73746;47.466;8.992;2023-12-07T16:51:20;0.80;99.90
30678;DHT22;73746;47.466;8.992;2023-12-07T16:53:52;1.10;99.90
30678;DHT22;73746;47.466;8.992;2023-12-07T16:56:25;1.40;99.90
30678;DHT22;73746;47.466;8.992;2023-12-07T16:58:57;1.40;99.90